»·PEaware :: N614FT KBUR-KLAS

N614FT :: KBUR-KLAS

FLIGHT INFORMATION

Flight Status: Arrived
Operator: Privately registered:
United States
More flights under this callsign
Pilot: Carlos A. (16805)
Aircraft: PIPER PA-31/31P NAVAJO CHIEFTAIN
(PA31)
More flights by this aircraft type
Origin: KBUR Bob Hope-Burbank
United States
Destination: KLAS Harry Reid Intl
United States
More flights between these airports :: More routes between these airports
Route: VNY3 DAG CRESO5
File this flight plan on PilotEdge
Remarks:
Altitude:
(Current/Filed)
11,000ft
Speed:
(Current/Filed)
185kts
Departed: 20-Jan-23 10:10 AM
Arrived: 20-Jan-23 11:29 AM
Distance/Time
Traveled:
194nm/1:19
Distance/Time
To Go:
Arrived

Flight Plot

Page will automatically refresh every two minutes.

Flight plan parsing failed; only flown route is shown


Map Options




Map Legend


Flown Route
Filed Route
Departure Airport
Arrival Airport
Navaid (VOR, NDB)
Fix

Horizontal Profiles

Position Reports

Time Latitude Longitude Heading Altitude Ground
Speed
20-Jan-23 09:46 34.196272 -118.365753 270 782ft 0kts
20-Jan-23 09:47 34.196272 -118.365755 270 782ft 0kts
20-Jan-23 09:48 34.196272 -118.365758 270 782ft 0kts
20-Jan-23 09:49 34.196272 -118.365760 270 782ft 0kts
20-Jan-23 09:50 34.196272 -118.365762 270 782ft 0kts
20-Jan-23 09:51 34.196272 -118.365765 270 782ft 0kts
20-Jan-23 09:52 34.196272 -118.365767 270 782ft 0kts
20-Jan-23 09:53 34.196272 -118.365769 270 782ft 0kts
20-Jan-23 09:54 34.196272 -118.365772 270 782ft 0kts
20-Jan-23 09:55 34.196272 -118.365774 270 782ft 0kts
20-Jan-23 09:56 34.196272 -118.365777 270 782ft 0kts
20-Jan-23 09:57 34.196272 -118.365779 270 782ft 0kts
20-Jan-23 09:58 34.196272 -118.365781 270 782ft 0kts
20-Jan-23 09:59 34.196272 -118.365784 270 782ft 0kts
20-Jan-23 10:00 34.196272 -118.365786 270 782ft 0kts
20-Jan-23 10:01 34.196272 -118.365788 270 782ft 0kts
20-Jan-23 10:02 34.196272 -118.365790 270 782ft 0kts
20-Jan-23 10:03 34.196272 -118.365793 270 782ft 0kts
20-Jan-23 10:04 34.196670 -118.366311 298 782ft 3kts
20-Jan-23 10:05 34.197294 -118.368953 3 782ft 0kts
20-Jan-23 10:06 34.197296 -118.368953 3 782ft 0kts
20-Jan-23 10:07 34.197298 -118.368953 3 782ft 0kts
20-Jan-23 10:08 34.197901 -118.368846 87 782ft 5kts
20-Jan-23 10:09 34.190239 -118.347965 178 1722ft 102kts
20-Jan-23 10:10 34.165821 -118.368556 218 2894ft 118kts
20-Jan-23 10:11 34.163433 -118.403857 314 3775ft 131kts
20-Jan-23 10:12 34.187734 -118.435490 304 5051ft 144kts
20-Jan-23 10:13 34.209922 -118.481728 299 6102ft 158kts
20-Jan-23 10:14 34.222320 -118.534455 267 6913ft 180kts
20-Jan-23 10:15 34.244750 -118.580398 329 7937ft 163kts
20-Jan-23 10:16 34.283892 -118.609977 332 9118ft 165kts
20-Jan-23 10:17 34.321632 -118.599461 55 10143ft 167kts
20-Jan-23 10:18 34.343287 -118.546227 58 10687ft 186kts
20-Jan-23 10:19 34.367081 -118.489559 56 10946ft 193kts
20-Jan-23 10:20 34.393942 -118.432257 44 10963ft 190kts
20-Jan-23 10:21 34.427463 -118.381034 46 10942ft 201kts
20-Jan-23 10:22 34.462411 -118.326171 41 10968ft 209kts
20-Jan-23 10:23 34.501023 -118.274036 44 10982ft 210kts
20-Jan-23 10:24 34.538497 -118.220212 39 11093ft 206kts
20-Jan-23 10:25 34.571663 -118.160875 56 10986ft 215kts
20-Jan-23 10:26 34.601927 -118.098980 43 10965ft 210kts
20-Jan-23 10:27 34.636422 -118.041650 67 10963ft 219kts
20-Jan-23 10:28 34.644777 -117.967896 67 11133ft 207kts
20-Jan-23 10:29 34.659897 -117.898599 80 10959ft 212kts
20-Jan-23 10:30 34.670358 -117.828371 91 10785ft 221kts
20-Jan-23 10:31 34.673324 -117.756719 70 10979ft 209kts
20-Jan-23 10:32 34.691008 -117.689454 61 11047ft 205kts
20-Jan-23 10:33 34.713531 -117.624566 67 10988ft 213kts
20-Jan-23 10:34 34.725039 -117.553818 74 11025ft 214kts
20-Jan-23 10:35 34.735079 -117.482040 76 11028ft 215kts
20-Jan-23 10:36 34.745749 -117.411323 67 11036ft 210kts
20-Jan-23 10:37 34.768362 -117.346537 64 11052ft 209kts
20-Jan-23 10:38 34.786191 -117.278742 66 11056ft 211kts
20-Jan-23 10:39 34.803505 -117.210296 67 11056ft 212kts
20-Jan-23 10:40 34.820742 -117.141699 66 11056ft 212kts
20-Jan-23 10:41 34.837968 -117.072958 67 11059ft 212kts
20-Jan-23 10:42 34.855172 -117.004140 66 11057ft 212kts
20-Jan-23 10:43 34.872412 -116.935301 66 11058ft 212kts
20-Jan-23 10:44 34.889599 -116.866252 67 11056ft 212kts
20-Jan-23 10:45 34.906642 -116.797341 67 11052ft 212kts
20-Jan-23 10:46 34.923760 -116.728322 67 11056ft 213kts
20-Jan-23 10:47 34.940889 -116.659064 67 11057ft 213kts
20-Jan-23 10:48 34.958171 -116.589888 65 11055ft 212kts
20-Jan-23 10:49 34.985210 -116.526938 55 11067ft 209kts
20-Jan-23 10:50 35.012935 -116.464779 55 11070ft 209kts
20-Jan-23 10:51 35.040728 -116.402195 56 11072ft 209kts
20-Jan-23 10:52 35.068282 -116.339843 56 11069ft 208kts
20-Jan-23 10:53 35.095813 -116.277658 55 11071ft 208kts
20-Jan-23 10:54 35.123630 -116.214692 56 10970ft 210kts
20-Jan-23 10:55 35.151276 -116.151859 55 10938ft 207kts
20-Jan-23 10:56 35.178721 -116.089459 56 10922ft 208kts
20-Jan-23 10:57 35.206064 -116.027148 56 10925ft 208kts
20-Jan-23 10:58 35.233484 -115.964560 56 10925ft 208kts
20-Jan-23 10:59 35.260793 -115.902067 56 10928ft 208kts
20-Jan-23 11:00 35.288138 -115.839505 56 10925ft 208kts
20-Jan-23 11:01 35.317104 -115.778381 44 10935ft 204kts
20-Jan-23 11:02 35.355644 -115.727327 42 10939ft 204kts
20-Jan-23 11:03 35.394199 -115.675811 42 10937ft 204kts
20-Jan-23 11:04 35.432509 -115.624693 42 10937ft 204kts
20-Jan-23 11:05 35.470803 -115.573449 42 10937ft 204kts
20-Jan-23 11:06 35.509320 -115.521821 42 10937ft 204kts
20-Jan-23 11:07 35.547656 -115.470467 43 10939ft 204kts
20-Jan-23 11:08 35.585866 -115.419041 42 10943ft 204kts
20-Jan-23 11:09 35.624267 -115.367366 43 10942ft 205kts
20-Jan-23 11:10 35.662519 -115.315955 43 10943ft 205kts
20-Jan-23 11:11 35.700735 -115.264461 43 10942ft 205kts
20-Jan-23 11:12 35.739124 -115.212531 42 10946ft 204kts
20-Jan-23 11:13 35.778131 -115.161181 40 10856ft 206kts
20-Jan-23 11:14 35.814442 -115.114636 35 10674ft 170kts
20-Jan-23 11:15 35.850629 -115.074990 48 10258ft 178kts
20-Jan-23 11:16 35.879101 -115.026094 28 9594ft 185kts
20-Jan-23 11:17 35.915372 -114.982611 50 9092ft 184kts
20-Jan-23 11:18 35.945754 -114.932516 42 8581ft 179kts
20-Jan-23 11:19 35.981362 -114.890329 44 8096ft 174kts
20-Jan-23 11:20 36.019369 -114.858273 28 7825ft 168kts
20-Jan-23 11:21 36.064410 -114.850817 336 7095ft 173kts
20-Jan-23 11:22 36.074172 -114.903581 268 6614ft 171kts
20-Jan-23 11:23 36.072794 -114.962378 273 5629ft 175kts
20-Jan-23 11:24 36.072997 -115.021105 271 3897ft 173kts
20-Jan-23 11:25 36.073265 -115.068066 279 2883ft 105kts
20-Jan-23 11:26 36.072723 -115.099712 284 2560ft 85kts
20-Jan-23 11:27 36.073454 -115.128829 288 2205ft 80kts
20-Jan-23 11:28 36.073648 -115.140551 266 2185ft 9kts
20-Jan-23 11:29 36.074274 -115.144660 298 2185ft 2kts
20-Jan-23 11:30 36.076701 -115.146483 355 2185ft 7kts
20-Jan-23 11:31 36.078486 -115.146950 92 2185ft 6kts
20-Jan-23 11:32 36.078270 -115.140880 87 2185ft 18kts
20-Jan-23 11:33 36.079917 -115.139268 320 2185ft 2kts
20-Jan-23 11:34 36.079920 -115.139271 320 2185ft 0kts
20-Jan-23 11:35 36.079920 -115.139272 320 2185ft 0kts
20-Jan-23 11:36 36.079920 -115.139272 320 2185ft 0kts
20-Jan-23 11:37 36.079920 -115.139272 320 2185ft 0kts
20-Jan-23 11:38 36.079920 -115.139272 320 2185ft 0kts
20-Jan-23 11:39 36.079920 -115.139272 320 2185ft 0kts

Navigation Log

Ident Type
Flight plan parsing failed, navigation log unavailable